Time;durP1;ratioP1;P1;durP2;ratioP2;P2;SDS_P1;SDS_P2;PMS_P1;PMS_P2;Temp;Humidity;BMP_temperature;BMP_pressure;BME280_temperature;BME280_humidity;BME280_pressure;Samples;Min_cycle;Max_cycle;Signal;HPM_P1;HPM_P2
2023/06/03 00:02:02;;;;;;;5.47;4.43;;;15.80;84.20;;;;;;6155197;23;20454;-63
2023/06/03 00:04:29;;;;;;;7.57;4.00;;;15.80;84.70;;;;;;6151455;23;20432;-63
2023/06/03 00:06:58;;;;;;;8.90;3.77;;;15.70;84.80;;;;;;6179300;23;20779;-63
2023/06/03 00:09:25;;;;;;;7.70;3.90;;;15.70;85.20;;;;;;6177264;23;20443;-63
2023/06/03 00:11:52;;;;;;;6.73;3.63;;;15.70;85.50;;;;;;6177360;23;20443;-63
2023/06/03 00:14:20;;;;;;;5.20;3.90;;;15.70;85.70;;;;;;6178365;23;20471;-63
2023/06/03 00:16:47;;;;;;;5.40;3.80;;;15.70;86.20;;;;;;6167771;23;20703;-63
2023/06/03 00:19:15;;;;;;;6.00;3.90;;;15.60;86.40;;;;;;6166757;23;20440;-63
2023/06/03 00:21:45;;;;;;;7.50;4.10;;;15.60;86.60;;;;;;6174010;23;20934;-63
2023/06/03 00:24:14;;;;;;;4.23;3.80;;;15.60;87.10;;;;;;6157566;23;20447;-63
2023/06/03 00:26:41;;;;;;;6.63;4.03;;;15.60;87.30;;;;;;6177243;23;20436;-63
2023/06/03 00:29:08;;;;;;;8.30;4.40;;;15.50;87.60;;;;;;6179614;23;20439;-63
2023/06/03 00:31:35;;;;;;;7.37;3.97;;;15.50;88.00;;;;;;6176625;23;20799;-61
2023/06/03 00:34:02;;;;;;;6.53;4.03;;;15.50;88.30;;;;;;6177969;23;20456;-61
2023/06/03 00:36:29;;;;;;;8.07;3.93;;;15.50;88.50;;;;;;6157812;23;20523;-62
2023/06/03 00:38:56;;;;;;;10.40;4.00;;;15.50;89.00;;;;;;6172956;23;20766;-62
2023/06/03 00:41:25;;;;;;;6.33;3.67;;;15.40;89.20;;;;;;6171923;23;20522;-62
2023/06/03 00:43:52;;;;;;;5.90;3.90;;;15.40;90.10;;;;;;6176246;23;20466;-62
2023/06/03 00:46:20;;;;;;;8.00;4.03;;;15.40;89.90;;;;;;6174885;23;20475;-62
2023/06/03 00:48:50;;;;;;;6.00;3.60;;;15.30;90.10;;;;;;6179522;23;20518;-62
2023/06/03 00:51:18;;;;;;;8.80;4.23;;;15.30;90.30;;;;;;6178510;23;20443;-62
2023/06/03 00:53:45;;;;;;;6.60;4.13;;;15.40;90.60;;;;;;6176338;23;20950;-63
2023/06/03 00:56:13;;;;;;;6.43;3.53;;;15.20;90.60;;;;;;6161648;23;20472;-62
2023/06/03 00:58:41;;;;;;;5.57;3.90;;;15.20;90.80;;;;;;6170122;23;20446;-62
2023/06/03 01:01:08;;;;;;;5.80;3.87;;;15.20;90.90;;;;;;6177909;23;20450;-62
2023/06/03 01:03:36;;;;;;;6.93;4.03;;;15.20;91.00;;;;;;6174442;23;20458;-62
2023/06/03 01:06:15;;;;;;;8.10;4.03;;;15.20;91.20;;;;;;6174350;23;20453;-62
2023/06/03 01:08:50;;;;;;;4.20;3.30;;;15.20;91.40;;;;;;6176732;23;20436;-62
2023/06/03 01:11:29;;;;;;;5.97;4.10;;;15.10;91.50;;;;;;6170617;23;20489;-62
2023/06/03 01:14:05;;;;;;;5.13;3.70;;;15.10;91.70;;;;;;6173842;23;20459;-62
2023/06/03 01:16:34;;;;;;;5.50;3.40;;;15.00;91.90;;;;;;6163431;23;20567;-62
2023/06/03 01:19:06;;;;;;;7.30;4.20;;;15.00;92.10;;;;;;6166728;23;20570;-62
2023/06/03 01:21:38;;;;;;;6.30;3.73;;;15.00;92.30;;;;;;6178097;23;20937;-62
2023/06/03 01:24:06;;;;;;;6.13;3.50;;;14.90;92.40;;;;;;6176561;23;20438;-63
2023/06/03 01:26:34;;;;;;;6.20;3.90;;;14.90;92.50;;;;;;6161262;23;20472;-62
2023/06/03 01:29:01;;;;;;;4.70;4.00;;;14.90;92.70;;;;;;6167405;23;20440;-62
2023/06/03 01:31:28;;;;;;;8.80;4.30;;;14.90;92.80;;;;;;6178046;23;20438;-62
2023/06/03 01:33:56;;;;;;;8.13;4.37;;;14.80;93.00;;;;;;6168728;23;20516;-62
2023/06/03 01:36:23;;;;;;;7.10;3.47;;;14.80;93.20;;;;;;6172538;23;20554;-62
2023/06/03 01:38:50;;;;;;;5.43;3.60;;;14.80;93.40;;;;;;6174442;23;20439;-62
2023/06/03 01:41:19;;;;;;;7.07;4.03;;;14.80;93.60;;;;;;6178414;23;20842;-62
2023/06/03 01:43:46;;;;;;;5.60;3.80;;;14.70;93.80;;;;;;6174333;23;20509;-62
2023/06/03 01:46:13;;;;;;;6.50;3.53;;;14.70;93.90;;;;;;6166940;23;20436;-62
2023/06/03 01:48:41;;;;;;;4.50;4.10;;;14.70;94.20;;;;;;6178407;23;20514;-62
2023/06/03 01:51:07;;;;;;;6.37;3.60;;;14.70;94.40;;;;;;6169144;23;20436;-62
2023/06/03 01:53:34;;;;;;;5.60;4.17;;;14.70;94.50;;;;;;6167290;23;20466;-62
2023/06/03 01:56:02;;;;;;;7.47;4.10;;;14.60;94.70;;;;;;6164950;23;20481;-63
2023/06/03 01:58:30;;;;;;;5.03;3.63;;;14.60;95.00;;;;;;6173193;23;20922;-63
2023/06/03 02:00:57;;;;;;;4.40;4.00;;;14.60;94.90;;;;;;6173092;23;20611;-63
2023/06/03 02:03:24;;;;;;;7.43;4.20;;;14.60;95.10;;;;;;6177690;23;20463;-63
2023/06/03 02:05:51;;;;;;;5.20;4.13;;;14.50;95.20;;;;;;6176684;23;20486;-63
2023/06/03 02:08:18;;;;;;;5.27;4.10;;;14.50;95.40;;;;;;6178763;23;20438;-63
2023/06/03 02:10:46;;;;;;;6.83;4.70;;;14.50;95.60;;;;;;6177705;23;20445;-63
2023/06/03 02:13:13;;;;;;;5.63;4.00;;;14.40;95.60;;;;;;6163588;23;20470;-63
2023/06/03 02:15:42;;;;;;;6.57;3.93;;;14.40;95.80;;;;;;6173325;23;21011;-63
2023/06/03 02:18:10;;;;;;;8.57;4.17;;;14.30;95.90;;;;;;6173495;23;20434;-63
2023/06/03 02:20:37;;;;;;;5.73;3.90;;;14.30;96.20;;;;;;6175834;23;20914;-63
2023/06/03 02:23:04;;;;;;;5.80;3.90;;;14.30;96.40;;;;;;6151862;23;20490;-63
2023/06/03 02:25:32;;;;;;;9.77;3.47;;;14.30;96.50;;;;;;6164914;23;20448;-63
2023/06/03 02:27:59;;;;;;;5.40;3.57;;;14.20;96.70;;;;;;6163843;23;20434;-61
2023/06/03 02:30:26;;;;;;;5.63;3.87;;;14.20;96.80;;;;;;6171337;23;20448;-62
2023/06/03 02:32:55;;;;;;;5.50;3.70;;;14.20;97.00;;;;;;6175809;23;20498;-61
2023/06/03 02:35:22;;;;;;;3.90;3.50;;;14.10;97.20;;;;;;6166203;23;20544;-63
2023/06/03 02:37:49;;;;;;;6.50;4.27;;;14.10;97.40;;;;;;6177457;23;20459;-63
2023/06/03 02:40:16;;;;;;;6.60;4.00;;;14.10;97.60;;;;;;6171014;23;20448;-63
2023/06/03 02:42:43;;;;;;;5.93;3.63;;;14.00;97.80;;;;;;6173155;23;20455;-63
2023/06/03 02:45:11;;;;;;;6.63;3.60;;;14.00;98.10;;;;;;6153967;23;20521;-63
2023/06/03 02:47:38;;;;;;;6.97;4.17;;;14.00;98.30;;;;;;6175252;23;20444;-63
2023/06/03 02:50:08;;;;;;;4.57;4.10;;;13.90;98.40;;;;;;6167284;23;20473;-63
2023/06/03 02:52:35;;;;;;;7.30;4.23;;;13.90;98.50;;;;;;6157762;23;20442;-63
2023/06/03 02:55:02;;;;;;;4.53;3.83;;;13.90;98.70;;;;;;6156260;23;20591;-62
2023/06/03 02:57:29;;;;;;;4.60;4.00;;;13.90;98.90;;;;;;6173213;23;20475;-62
2023/06/03 02:59:56;;;;;;;7.13;3.93;;;13.80;99.00;;;;;;6177009;23;20827;-63
2023/06/03 03:02:25;;;;;;;5.23;4.07;;;13.80;99.20;;;;;;6174215;23;20551;-63
2023/06/03 03:04:53;;;;;;;7.00;4.30;;;13.80;99.60;;;;;;6160239;23;20443;-63
2023/06/03 03:07:26;;;;;;;6.70;4.13;;;13.70;99.50;;;;;;6159115;23;20437;-64
2023/06/03 03:09:54;;;;;;;6.87;4.37;;;13.70;99.60;;;;;;6179538;23;20880;-62
2023/06/03 03:12:21;;;;;;;6.23;3.60;;;13.70;99.80;;;;;;6166277;23;20746;-63
2023/06/03 03:14:48;;;;;;;6.97;4.20;;;13.70;99.90;;;;;;6156228;23;20524;-61
2023/06/03 03:17:15;;;;;;;6.47;5.00;;;13.60;99.90;;;;;;6173018;23;20436;-62
2023/06/03 03:19:42;;;;;;;6.57;3.90;;;13.60;99.90;;;;;;6168198;23;20442;-62
2023/06/03 03:22:09;;;;;;;5.73;4.13;;;13.60;99.90;;;;;;6158727;23;20532;-62
2023/06/03 03:24:40;;;;;;;7.03;4.00;;;13.60;99.90;;;;;;6171750;23;20432;-63
2023/06/03 03:27:08;;;;;;;4.33;3.83;;;13.60;99.90;;;;;;6151962;23;20455;-63
2023/06/03 03:29:35;;;;;;;6.00;4.33;;;13.60;99.90;;;;;;6171346;23;20430;-63
2023/06/03 03:32:07;;;;;;;6.37;4.00;;;13.50;99.90;;;;;;6147665;23;20508;-63
2023/06/03 03:34:36;;;;;;;5.20;4.07;;;13.50;99.90;;;;;;6168042;23;20440;-63
2023/06/03 03:37:04;;;;;;;7.47;4.27;;;13.50;99.90;;;;;;6167910;23;20465;-63
2023/06/03 03:39:31;;;;;;;5.77;4.00;;;13.50;99.90;;;;;;6165728;23;20451;-63
2023/06/03 03:41:59;;;;;;;6.37;4.30;;;13.50;99.90;;;;;;6163011;23;20495;-63
2023/06/03 03:44:31;;;;;;;5.30;4.10;;;13.40;99.90;;;;;;6176514;23;20436;-63
2023/06/03 03:47:01;;;;;;;8.40;4.30;;;13.50;99.90;;;;;;6151371;23;20930;-63
2023/06/03 03:49:30;;;;;;;8.17;5.10;;;13.40;99.90;;;;;;6177944;23;20438;-63
2023/06/03 03:51:57;;;;;;;5.33;3.80;;;13.50;99.90;;;;;;6178380;23;20490;-63
2023/06/03 03:54:24;;;;;;;5.50;4.07;;;13.40;99.90;;;;;;6164601;23;20523;-63
2023/06/03 03:56:55;;;;;;;5.07;4.30;;;13.40;99.90;;;;;;6149922;23;20464;-63
2023/06/03 03:59:28;;;;;;;7.40;4.50;;;13.40;99.90;;;;;;6149969;23;20428;-61
2023/06/03 04:01:55;;;;;;;7.20;4.17;;;13.50;99.90;;;;;;6166485;23;20554;-63
2023/06/03 04:04:41;;;;;;;8.77;4.33;;;13.50;99.90;;;;;;6161106;23;20901;-63
2023/06/03 04:07:11;;;;;;;5.93;4.20;;;13.50;99.90;;;;;;6149617;23;20462;-63
2023/06/03 04:09:39;;;;;;;6.23;4.20;;;13.50;99.90;;;;;;6172359;23;20429;-63
2023/06/03 04:12:17;;;;;;;6.60;4.20;;;13.50;99.90;;;;;;6154782;23;20983;-60
2023/06/03 04:14:50;;;;;;;5.53;3.80;;;13.50;99.90;;;;;;6178019;23;20439;-61
2023/06/03 04:17:21;;;;;;;5.13;4.40;;;13.60;99.90;;;;;;6158028;23;20487;-61
2023/06/03 04:19:48;;;;;;;5.30;4.00;;;13.60;99.90;;;;;;6172758;23;20436;-62
2023/06/03 04:22:21;;;;;;;4.70;4.30;;;13.60;99.90;;;;;;6175874;23;20460;-62
2023/06/03 04:24:56;;;;;;;5.10;4.27;;;13.60;99.90;;;;;;6179443;23;20445;-62
2023/06/03 04:27:23;;;;;;;7.10;4.90;;;13.60;99.90;;;;;;6158698;23;20433;-62
2023/06/03 04:29:52;;;;;;;4.30;4.00;;;13.60;99.90;;;;;;6156710;23;20499;-63
2023/06/03 04:32:19;;;;;;;7.50;4.50;;;13.70;99.90;;;;;;6163052;23;20522;-62
2023/06/03 04:34:50;;;;;;;7.23;4.83;;;13.70;99.90;;;;;;6177717;23;20423;-62
2023/06/03 04:37:17;;;;;;;8.67;4.20;;;13.70;99.90;;;;;;6157251;23;20473;-63
2023/06/03 04:39:44;;;;;;;6.87;4.43;;;13.80;99.90;;;;;;6151906;23;20799;-62
2023/06/03 04:42:12;;;;;;;8.40;4.20;;;13.80;99.90;;;;;;6162266;23;20453;-62
2023/06/03 04:44:39;;;;;;;6.83;4.30;;;13.80;99.90;;;;;;6163497;23;20800;-62
2023/06/03 04:47:10;;;;;;;6.73;4.53;;;13.80;99.90;;;;;;6174875;23;20464;-62
2023/06/03 04:49:38;;;;;;;6.50;4.80;;;13.90;99.90;;;;;;6169259;23;20852;-62
2023/06/03 04:52:09;;;;;;;6.97;4.70;;;13.90;99.90;;;;;;6175825;23;20505;-62
2023/06/03 04:54:36;;;;;;;8.50;4.53;;;13.90;99.90;;;;;;6172577;23;20441;-63
2023/06/03 04:57:03;;;;;;;5.70;4.20;;;14.00;99.90;;;;;;6178141;23;20474;-62
2023/06/03 04:59:30;;;;;;;6.70;4.30;;;14.10;99.90;;;;;;6177467;23;20471;-62
2023/06/03 05:01:57;;;;;;;6.03;4.00;;;14.20;99.90;;;;;;6178793;23;20523;-62
2023/06/03 05:04:29;;;;;;;4.97;4.30;;;14.20;99.90;;;;;;6156473;23;20446;-62
2023/06/03 05:06:57;;;;;;;4.47;4.07;;;14.30;99.90;;;;;;6176280;23;20860;-62
2023/06/03 05:09:25;;;;;;;7.73;4.97;;;14.30;99.90;;;;;;6177063;23;20436;-63
2023/06/03 05:11:51;;;;;;;4.93;3.90;;;14.40;99.90;;;;;;6181519;23;20526;-63
2023/06/03 05:14:19;;;;;;;7.00;4.60;;;14.40;99.90;;;;;;6201566;23;20443;-62
2023/06/03 05:16:46;;;;;;;5.20;4.33;;;14.50;99.90;;;;;;6179055;23;20542;-62
2023/06/03 05:19:13;;;;;;;5.67;4.70;;;14.50;99.90;;;;;;6176058;23;20978;-62
2023/06/03 05:21:41;;;;;;;6.70;4.70;;;14.60;99.90;;;;;;6164253;23;20962;-62
2023/06/03 05:24:08;;;;;;;7.40;4.67;;;14.70;99.90;;;;;;6164198;23;20936;-61
2023/06/03 05:26:36;;;;;;;5.17;4.40;;;14.80;99.90;;;;;;6177618;23;20488;-61
2023/06/03 05:29:03;;;;;;;8.40;4.77;;;14.90;99.90;;;;;;6187455;23;20525;-61
2023/06/03 05:31:30;;;;;;;5.47;4.37;;;14.90;99.90;;;;;;6150947;23;20804;-62
2023/06/03 05:33:57;;;;;;;5.87;4.40;;;15.00;99.90;;;;;;6149146;23;20420;-62
2023/06/03 05:36:26;;;;;;;6.47;4.77;;;15.10;99.90;;;;;;6186099;23;20472;-61
2023/06/03 05:38:54;;;;;;;6.33;4.40;;;15.10;99.90;;;;;;6156002;23;20840;-62
2023/06/03 05:41:21;;;;;;;6.37;4.43;;;15.20;99.90;;;;;;6172617;23;20895;-62
2023/06/03 05:43:48;;;;;;;6.07;3.90;;;15.40;99.90;;;;;;6172699;23;20441;-62
2023/06/03 05:46:16;;;;;;;6.23;4.60;;;15.30;99.90;;;;;;6177263;23;20858;-62
2023/06/03 05:48:43;;;;;;;6.80;4.77;;;15.40;99.90;;;;;;6174761;23;20431;-62
2023/06/03 05:51:10;;;;;;;5.93;4.70;;;15.50;99.90;;;;;;6162607;23;20905;-64
2023/06/03 05:53:43;;;;;;;5.83;4.57;;;15.50;99.90;;;;;;6144115;23;20500;-64
2023/06/03 05:56:12;;;;;;;7.00;4.50;;;15.60;99.90;;;;;;6174386;23;20466;-62
2023/06/03 05:58:39;;;;;;;5.40;4.63;;;15.70;99.90;;;;;;6160330;23;20432;-63
2023/06/03 06:01:06;;;;;;;5.67;4.70;;;15.80;99.90;;;;;;6168103;23;20436;-77
2023/06/03 06:03:33;;;;;;;5.93;4.50;;;15.90;99.90;;;;;;6155801;23;20435;-62
2023/06/03 06:06:01;;;;;;;6.27;4.60;;;15.90;99.90;;;;;;6171171;23;20436;-62
2023/06/03 06:08:28;;;;;;;6.83;4.77;;;16.00;99.90;;;;;;6162389;23;20961;-63
2023/06/03 06:10:55;;;;;;;7.43;4.63;;;16.00;99.90;;;;;;6170225;23;20920;-63
2023/06/03 06:13:23;;;;;;;4.73;4.13;;;16.00;99.90;;;;;;6158870;23;20431;-63
2023/06/03 06:15:59;;;;;;;5.87;5.27;;;16.00;99.90;;;;;;6157654;23;20511;-63
2023/06/03 06:18:26;;;;;;;6.57;4.40;;;16.00;99.90;;;;;;6168602;23;20472;-63
2023/06/03 06:20:53;;;;;;;7.70;4.60;;;16.10;99.90;;;;;;6170746;23;20432;-63
2023/06/03 06:23:20;;;;;;;7.30;4.90;;;16.30;99.90;;;;;;6169257;23;20428;-63
2023/06/03 06:25:49;;;;;;;6.93;4.90;;;16.40;99.70;;;;;;6159388;23;20470;-63
2023/06/03 06:28:18;;;;;;;5.60;4.57;;;16.50;99.40;;;;;;6179831;23;20443;-63
2023/06/03 06:30:46;;;;;;;5.13;4.63;;;16.60;99.10;;;;;;6176144;23;20467;-63
2023/06/03 06:33:15;;;;;;;5.53;4.20;;;16.70;99.00;;;;;;6177583;23;20447;-63
2023/06/03 06:35:42;;;;;;;7.77;5.13;;;16.80;98.70;;;;;;6178543;23;20439;-63
2023/06/03 06:38:10;;;;;;;5.10;4.40;;;17.00;98.40;;;;;;6179413;23;20491;-63
2023/06/03 06:40:39;;;;;;;6.17;4.60;;;17.10;98.10;;;;;;6178229;23;20447;-63
2023/06/03 06:43:07;;;;;;;6.77;4.50;;;17.20;97.70;;;;;;6179185;23;20894;-63
2023/06/03 06:45:35;;;;;;;6.40;4.53;;;17.40;97.60;;;;;;6174931;23;20459;-63
2023/06/03 06:48:06;;;;;;;6.60;4.30;;;17.50;97.10;;;;;;6177619;23;20456;-62
2023/06/03 06:50:42;;;;;;;5.67;4.37;;;17.60;96.70;;;;;;6163714;23;20440;-62
2023/06/03 06:53:10;;;;;;;5.53;4.93;;;17.70;96.00;;;;;;6149822;23;20445;-62
2023/06/03 06:55:41;;;;;;;5.17;4.00;;;17.70;96.20;;;;;;6160862;23;20446;-62
2023/06/03 06:58:09;;;;;;;6.80;4.60;;;17.70;96.10;;;;;;6157404;23;20508;-62
2023/06/03 07:00:37;;;;;;;5.20;4.53;;;17.80;96.00;;;;;;6149860;23;20477;-63
2023/06/03 07:03:06;;;;;;;5.17;4.67;;;17.90;95.90;;;;;;6153305;23;20963;-76
2023/06/03 07:05:33;;;;;;;6.73;4.50;;;18.00;95.60;;;;;;6169741;23;20581;-72
2023/06/03 07:08:01;;;;;;;6.80;4.30;;;18.00;95.60;;;;;;6163571;23;20447;-73
2023/06/03 07:10:28;;;;;;;6.50;5.03;;;18.10;95.30;;;;;;6166974;23;20508;-63
2023/06/03 07:12:55;;;;;;;6.03;4.10;;;18.10;95.10;;;;;;6168256;23;20452;-63
2023/06/03 07:15:23;;;;;;;6.40;4.67;;;18.20;95.10;;;;;;6164596;23;21030;-63
2023/06/03 07:17:50;;;;;;;6.00;4.70;;;18.20;94.60;;;;;;6163067;23;20468;-64
2023/06/03 07:20:21;;;;;;;5.03;4.53;;;18.20;94.80;;;;;;6169969;23;20530;-63
2023/06/03 07:22:49;;;;;;;5.13;4.60;;;18.30;95.10;;;;;;6160395;23;21036;-63
2023/06/03 07:25:32;;;;;;;6.97;4.47;;;18.50;94.50;;;;;;6160565;23;20783;-63
2023/06/03 07:27:59;;;;;;;5.73;5.20;;;18.60;94.40;;;;;;6163956;23;20436;-63
2023/06/03 07:30:27;;;;;;;7.30;4.63;;;18.80;94.20;;;;;;6159672;23;20432;-63
2023/06/03 07:32:58;;;;;;;6.50;5.07;;;19.00;93.90;;;;;;6170356;23;20536;-73
2023/06/03 07:35:27;;;;;;;5.30;4.40;;;19.30;93.60;;;;;;6157123;23;20439;-63
2023/06/03 07:37:54;;;;;;;5.27;4.70;;;19.60;92.80;;;;;;6159517;23;20528;-64
2023/06/03 07:40:31;;;;;;;6.87;4.73;;;19.90;92.90;;;;;;6166210;23;20538;-64
2023/06/03 07:42:58;;;;;;;4.70;4.23;;;20.20;92.20;;;;;;6166869;23;20456;-64
2023/06/03 07:45:27;;;;;;;9.37;5.10;;;20.60;91.40;;;;;;6164428;23;20927;-64
2023/06/03 07:47:57;;;;;;;5.83;4.77;;;20.70;90.50;;;;;;6158698;23;20493;-63
2023/06/03 07:50:27;;;;;;;4.40;3.83;;;20.70;90.70;;;;;;6168054;23;20455;-64
2023/06/03 07:53:00;;;;;;;6.73;4.70;;;20.90;90.40;;;;;;6160173;23;20570;-65
2023/06/03 07:55:27;;;;;;;6.00;4.50;;;21.20;90.00;;;;;;6168036;23;20444;-65
2023/06/03 07:57:54;;;;;;;6.37;4.50;;;21.60;89.80;;;;;;6161933;23;20458;-65
2023/06/03 08:00:21;;;;;;;6.37;4.40;;;21.90;88.80;;;;;;6156627;23;20446;-65
2023/06/03 08:02:49;;;;;;;5.47;4.10;;;22.30;87.10;;;;;;6151890;23;20820;-64
2023/06/03 08:05:16;;;;;;;6.03;4.50;;;22.70;86.10;;;;;;6153763;23;20447;-64
2023/06/03 08:07:46;;;;;;;8.43;4.67;;;23.00;84.80;;;;;;6147256;23;20435;-64
2023/06/03 08:10:23;;;;;;;6.20;4.27;;;23.40;84.00;;;;;;6156261;23;20530;-64
2023/06/03 08:12:50;;;;;;;5.20;4.60;;;23.50;82.10;;;;;;6168007;23;20451;-64
2023/06/03 08:15:26;;;;;;;4.63;4.23;;;23.70;81.40;;;;;;6168093;23;20428;-64
2023/06/03 08:17:54;;;;;;;6.80;4.57;;;23.60;81.10;;;;;;6174324;23;20466;-63
2023/06/03 08:20:25;;;;;;;4.80;4.20;;;23.80;80.60;;;;;;6177927;23;20489;-64
2023/06/03 08:22:54;;;;;;;5.37;4.03;;;24.00;80.00;;;;;;6173480;23;20985;-64
2023/06/03 08:25:21;;;;;;;5.63;4.50;;;24.20;78.80;;;;;;6170877;23;20439;-64
2023/06/03 08:27:48;;;;;;;8.57;4.60;;;24.50;78.60;;;;;;6163916;23;20432;-64
2023/06/03 08:30:16;;;;;;;5.30;4.30;;;24.70;78.20;;;;;;6169386;23;20456;-65
2023/06/03 08:32:44;;;;;;;4.90;4.17;;;25.00;77.70;;;;;;6162563;23;20459;-65
2023/06/03 08:35:13;;;;;;;5.70;4.17;;;25.30;76.20;;;;;;6174060;23;20485;-65
2023/06/03 08:37:40;;;;;;;7.83;4.57;;;25.40;74.20;;;;;;6166541;23;21069;-65
2023/06/03 08:40:11;;;;;;;5.40;4.40;;;25.40;73.60;;;;;;6164693;23;20457;-65
2023/06/03 08:42:42;;;;;;;5.80;5.20;;;25.50;72.80;;;;;;6161147;23;20527;-64
2023/06/03 08:45:11;;;;;;;5.00;3.97;;;25.10;72.80;;;;;;6166773;23;20561;-64
2023/06/03 08:47:59;;;;;;;4.87;4.40;;;24.90;74.30;;;;;;6157831;23;20467;-64
2023/06/03 08:50:28;;;;;;;7.60;5.90;;;24.90;74.50;;;;;;6178999;23;20506;-64
2023/06/03 08:52:57;;;;;;;5.40;4.77;;;24.70;74.80;;;;;;6167583;23;20515;-64
2023/06/03 08:55:26;;;;;;;5.47;4.90;;;24.60;75.50;;;;;;6176965;23;20436;-64
2023/06/03 08:57:58;;;;;;;5.70;4.90;;;24.80;75.10;;;;;;6169621;23;20515;-64
2023/06/03 09:00:27;;;;;;;6.30;4.80;;;24.90;75.10;;;;;;6170461;23;20428;-64
2023/06/03 09:02:55;;;;;;;5.10;4.60;;;25.00;75.50;;;;;;6168763;23;20788;-64
2023/06/03 09:05:23;;;;;;;5.73;4.77;;;24.60;74.60;;;;;;6171190;23;20435;-64
2023/06/03 09:07:51;;;;;;;5.40;4.40;;;24.60;75.50;;;;;;6168656;23;20435;-64
2023/06/03 09:10:20;;;;;;;4.90;4.40;;;25.00;75.90;;;;;;6175216;23;21133;-65
2023/06/03 09:12:50;;;;;;;7.33;4.90;;;25.30;74.90;;;;;;6175135;23;20961;-64
2023/06/03 09:15:17;;;;;;;5.00;4.50;;;25.50;74.20;;;;;;6165062;23;20511;-64
2023/06/03 09:17:45;;;;;;;5.37;3.77;;;25.60;73.80;;;;;;6165659;23;20441;-64
2023/06/03 09:20:13;;;;;;;6.17;5.33;;;26.00;73.50;;;;;;6170202;23;20428;-65
2023/06/03 09:22:43;;;;;;;8.57;5.33;;;26.40;71.60;;;;;;6171038;23;20535;-65
2023/06/03 09:25:10;;;;;;;5.73;5.03;;;26.50;70.40;;;;;;6159144;23;20440;-65
2023/06/03 09:27:37;;;;;;;6.07;4.33;;;26.60;71.60;;;;;;6170122;23;20446;-84
2023/06/03 09:30:07;;;;;;;4.73;4.17;;;27.00;70.70;;;;;;6165771;23;20932;-65
2023/06/03 09:32:36;;;;;;;6.57;5.53;;;27.40;70.50;;;;;;6164904;23;20464;-65
2023/06/03 09:35:05;;;;;;;6.60;4.70;;;27.80;68.30;;;;;;6178412;23;20519;-64
2023/06/03 09:37:32;;;;;;;5.40;4.73;;;27.90;68.40;;;;;;6170427;23;20463;-64
2023/06/03 09:40:00;;;;;;;6.60;5.00;;;28.00;67.50;;;;;;6155335;23;20466;-64
2023/06/03 09:42:41;;;;;;;5.17;4.67;;;27.90;68.00;;;;;;6171161;23;20451;-65
2023/06/03 09:45:23;;;;;;;5.00;4.60;;;27.80;68.70;;;;;;6178789;23;20452;-65
2023/06/03 09:47:50;;;;;;;6.50;4.60;;;27.90;68.70;;;;;;6176061;23;20439;-65
2023/06/03 09:50:17;;;;;;;4.30;3.90;;;28.20;66.90;;;;;;6165451;23;20834;-65
2023/06/03 09:52:44;;;;;;;5.67;4.30;;;28.40;66.60;;;;;;6174135;23;20503;-65
2023/06/03 09:55:11;;;;;;;6.37;5.00;;;28.70;66.00;;;;;;6161591;23;20429;-66
2023/06/03 09:57:39;;;;;;;4.47;4.10;;;29.10;64.80;;;;;;6157303;23;20975;-66
2023/06/03 10:00:10;;;;;;;4.37;3.97;;;29.30;64.40;;;;;;6175259;23;20440;-66
2023/06/03 10:02:40;;;;;;;4.90;4.50;;;29.50;63.60;;;;;;6174448;23;20812;-66
2023/06/03 10:05:26;;;;;;;5.00;4.50;;;29.60;62.30;;;;;;6162241;23;20524;-65
2023/06/03 10:07:53;;;;;;;5.37;4.87;;;29.50;63.60;;;;;;6163479;23;20428;-65
2023/06/03 10:10:21;;;;;;;4.93;4.53;;;29.20;62.80;;;;;;6166123;23;20496;-65
2023/06/03 10:12:48;;;;;;;5.80;5.20;;;28.70;63.30;;;;;;6158373;23;20428;-65
2023/06/03 10:15:34;;;;;;;5.07;4.57;;;28.70;65.00;;;;;;6165059;23;20455;-65
2023/06/03 10:18:03;;;;;;;5.23;4.73;;;28.90;64.30;;;;;;6170404;23;20455;-65
2023/06/03 10:20:34;;;;;;;4.80;4.40;;;29.10;63.50;;;;;;6158933;23;20515;-65
2023/06/03 10:23:02;;;;;;;5.23;4.47;;;29.40;63.10;;;;;;6168497;23;20440;-66
2023/06/03 10:25:33;;;;;;;6.00;4.77;;;29.80;63.00;;;;;;6160666;23;20836;-65
2023/06/03 10:28:00;;;;;;;4.90;4.40;;;30.10;61.20;;;;;;6161223;23;20460;-65
2023/06/03 10:30:30;;;;;;;5.77;4.57;;;30.30;61.50;;;;;;6168472;23;20494;-67
2023/06/03 10:33:02;;;;;;;4.40;4.00;;;30.50;60.90;;;;;;6158703;23;20438;-65
2023/06/03 10:35:32;;;;;;;5.67;4.60;;;30.80;60.20;;;;;;6171716;23;20549;-65
2023/06/03 10:38:00;;;;;;;5.63;5.17;;;31.00;59.50;;;;;;6172836;23;20512;-66
2023/06/03 10:40:28;;;;;;;5.37;4.90;;;31.30;58.70;;;;;;6176891;23;20458;-66
2023/06/03 10:42:57;;;;;;;5.53;5.13;;;31.40;58.30;;;;;;6162583;23;20856;-66
2023/06/03 10:45:27;;;;;;;4.73;4.40;;;31.40;59.10;;;;;;6164313;23;20421;-65
2023/06/03 10:47:59;;;;;;;4.80;4.40;;;31.60;58.50;;;;;;6168446;23;20515;-65
2023/06/03 10:50:51;;;;;;;5.47;4.50;;;31.70;58.10;;;;;;6169088;23;20436;-64
2023/06/03 10:53:31;;;;;;;5.93;5.00;;;31.70;58.00;;;;;;6170267;23;20510;-65
2023/06/03 10:56:08;;;;;;;5.53;5.03;;;31.90;57.60;;;;;;6150094;23;20491;-64
2023/06/03 10:58:36;;;;;;;5.67;5.17;;;31.60;57.20;;;;;;6170303;23;20505;-65
2023/06/03 11:01:05;;;;;;;6.00;5.40;;;30.80;57.80;;;;;;6177714;23;20470;-65
2023/06/03 12:06:59;;;;;;;5.30;4.80;;;29.30;58.00;;;;;;6114819;23;21611;-64
2023/06/03 12:09:28;;;;;;;6.10;5.60;;;28.80;59.50;;;;;;6110812;23;20528;-64
2023/06/03 12:11:56;;;;;;;6.00;5.50;;;28.70;59.40;;;;;;6101009;23;21063;-65
2023/06/03 12:14:27;;;;;;;5.23;4.73;;;29.00;59.80;;;;;;6111295;23;20434;-65
2023/06/03 12:16:56;;;;;;;5.60;5.17;;;29.70;58.80;;;;;;6112626;23;20471;-65
2023/06/03 12:19:23;;;;;;;5.50;5.00;;;30.40;57.60;;;;;;6112089;23;20865;-65
2023/06/03 12:22:00;;;;;;;5.50;4.90;;;31.10;56.40;;;;;;6121104;23;20453;-65
2023/06/03 12:24:29;;;;;;;5.70;5.20;;;31.80;55.60;;;;;;6121751;23;20433;-65
2023/06/03 12:26:56;;;;;;;5.60;4.77;;;32.40;54.70;;;;;;6111980;23;20519;-65
2023/06/03 12:29:24;;;;;;;5.43;5.00;;;33.00;53.80;;;;;;6114645;23;20461;-66
2023/06/03 12:31:58;;;;;;;5.27;4.77;;;33.40;52.40;;;;;;6102771;23;20458;-65
2023/06/03 12:34:34;;;;;;;6.13;5.63;;;32.50;53.50;;;;;;6124311;23;20428;-65
2023/06/03 12:37:03;;;;;;;6.67;5.73;;;31.60;54.40;;;;;;6120147;23;20444;-66
2023/06/03 12:39:41;;;;;;;5.97;4.90;;;31.10;54.70;;;;;;6120461;23;20971;-66
2023/06/03 12:42:09;;;;;;;5.70;5.23;;;31.20;55.60;;;;;;6119126;23;20457;-66
2023/06/03 12:44:47;;;;;;;6.20;5.60;;;31.60;55.20;;;;;;6118791;23;20524;-66
2023/06/03 12:47:16;;;;;;;7.60;5.53;;;32.00;54.50;;;;;;6104805;23;20447;-66
2023/06/03 12:49:44;;;;;;;5.27;4.87;;;32.30;53.10;;;;;;6106258;23;20432;-66
2023/06/03 12:52:15;;;;;;;5.47;4.97;;;32.60;53.40;;;;;;6111565;23;20460;-66
2023/06/03 12:54:44;;;;;;;5.67;5.17;;;33.20;53.10;;;;;;6107942;23;20443;-76
2023/06/03 12:57:11;;;;;;;5.30;4.90;;;33.70;52.50;;;;;;6110484;23;21119;-65
2023/06/03 13:00:00;;;;;;;5.07;4.67;;;34.50;51.00;;;;;;6107980;23;20434;-65
2023/06/03 13:02:28;;;;;;;4.77;4.40;;;35.00;50.10;;;;;;6113164;23;20438;-65
2023/06/03 13:04:54;;;;;;;5.33;4.83;;;35.50;49.90;;;;;;6106526;23;20437;-66
2023/06/03 13:07:23;;;;;;;5.10;4.60;;;36.20;48.60;;;;;;6112932;23;20967;-66
2023/06/03 13:09:50;;;;;;;5.40;4.77;;;36.90;48.20;;;;;;6118080;23;20425;-65
2023/06/03 13:12:17;;;;;;;5.67;5.17;;;37.60;47.00;;;;;;6125261;23;20921;-65
2023/06/03 13:14:44;;;;;;;5.70;5.10;;;38.00;45.90;;;;;;6105104;23;20457;-65
2023/06/03 13:17:11;;;;;;;7.27;5.30;;;37.70;45.20;;;;;;6107920;23;20437;-66
2023/06/03 13:19:39;;;;;;;5.40;4.90;;;37.90;45.60;;;;;;6102166;23;20480;-66
2023/06/03 13:22:08;;;;;;;5.00;4.60;;;38.20;44.90;;;;;;6096437;23;20485;-65
2023/06/03 13:24:36;;;;;;;5.37;4.57;;;38.70;44.20;;;;;;6111648;23;20470;-66
2023/06/03 13:27:04;;;;;;;5.40;5.00;;;39.20;43.30;;;;;;6107752;23;20968;-66
2023/06/03 13:29:31;;;;;;;5.80;5.00;;;39.10;42.70;;;;;;6106396;23;20865;-66
2023/06/03 13:31:58;;;;;;;5.17;4.67;;;38.70;43.20;;;;;;6100272;23;20495;-66
2023/06/03 13:34:25;;;;;;;5.50;5.10;;;38.60;42.90;;;;;;6097096;23;20484;-66
2023/06/03 13:36:52;;;;;;;5.13;4.53;;;38.30;43.40;;;;;;6110470;23;20508;-66
2023/06/03 13:39:22;;;;;;;5.50;5.00;;;37.80;43.30;;;;;;6108241;23;20600;-66
2023/06/03 13:41:50;;;;;;;5.60;5.20;;;37.00;43.60;;;;;;6117123;23;20549;-66
2023/06/03 13:44:17;;;;;;;5.00;4.60;;;36.00;44.50;;;;;;6096454;23;20832;-66
2023/06/03 13:46:45;;;;;;;5.03;4.63;;;35.30;45.50;;;;;;6101549;23;20473;-65
2023/06/03 13:49:12;;;;;;;7.00;4.93;;;35.00;45.80;;;;;;6099607;23;20435;-65
2023/06/03 13:51:39;;;;;;;5.93;5.43;;;35.10;46.00;;;;;;6104814;23;20453;-65
2023/06/03 13:54:06;;;;;;;6.33;5.03;;;35.60;45.80;;;;;;6098922;23;20442;-65
2023/06/03 13:56:34;;;;;;;5.03;4.63;;;36.20;44.40;;;;;;6107248;23;20456;-65
2023/06/03 13:59:02;;;;;;;5.93;5.43;;;36.40;44.70;;;;;;6099709;23;20430;-66
2023/06/03 14:01:30;;;;;;;4.90;4.50;;;37.00;44.10;;;;;;6098101;23;20805;-65